createdAt,value
2017-08-04T10:46:21.262Z,36.97
2017-08-04T10:48:49.327Z,35.93
2017-08-04T10:51:17.382Z,51.03
2017-08-04T10:53:45.464Z,46.80
2017-08-04T10:56:13.526Z,30.70
2017-08-04T10:58:41.631Z,32.53
2017-08-04T11:01:09.703Z,33.80
2017-08-04T11:03:37.812Z,39.80
2017-08-04T11:06:06.623Z,30.40
2017-08-04T11:08:34.691Z,29.63
2017-08-04T11:11:02.770Z,31.47
2017-08-04T11:13:30.840Z,30.30
2017-08-04T11:15:58.934Z,25.97
2017-08-04T11:18:26.998Z,27.23
2017-08-04T11:20:55.102Z,28.90
2017-08-04T11:23:23.161Z,30.97
2017-08-04T11:25:51.226Z,27.03
2017-08-04T11:28:19.298Z,31.27
2017-08-04T11:30:47.370Z,30.80
2017-08-04T11:33:15.467Z,26.50
2017-08-04T11:35:43.557Z,32.20
2017-08-04T11:38:11.620Z,17.47
2017-08-04T11:40:39.706Z,21.00
2017-08-04T11:43:07.770Z,14.20
2017-08-04T11:45:35.858Z,20.97
2017-08-04T11:48:03.929Z,14.83
2017-08-04T11:50:31.990Z,15.60
2017-08-04T11:53:00.092Z,17.83
2017-08-04T11:55:28.143Z,16.70
2017-08-04T11:57:56.672Z,14.63
2017-08-04T12:00:25.529Z,14.30
2017-08-04T12:02:53.580Z,19.80
2017-08-04T12:05:21.661Z,19.70
2017-08-04T12:07:49.746Z,18.97
2017-08-04T12:10:17.823Z,19.20
2017-08-04T12:12:45.921Z,17.37
2017-08-04T12:15:14.763Z,22.63
2017-08-04T12:17:43.444Z,18.13
2017-08-04T12:20:11.512Z,20.50
2017-08-04T12:22:39.587Z,19.90
2017-08-04T12:25:07.684Z,19.97
2017-08-04T12:27:35.756Z,25.07
2017-08-04T12:30:04.660Z,22.37
2017-08-04T12:32:33.503Z,21.60
2017-08-04T12:35:01.596Z,26.73
2017-08-04T12:37:29.654Z,23.70
2017-08-04T12:39:57.746Z,25.77
2017-08-04T12:42:25.791Z,26.93
2017-08-04T12:44:54.646Z,23.20
2017-08-04T12:47:22.698Z,24.23
2017-08-04T12:49:50.775Z,24.80
2017-08-04T12:52:18.858Z,26.00
2017-08-04T12:54:46.930Z,21.00
2017-08-04T12:57:15.005Z,26.53
2017-08-04T12:59:43.090Z,26.27
2017-08-04T13:02:11.155Z,25.40
2017-08-04T13:04:39.235Z,24.27
2017-08-04T13:07:07.298Z,26.63
2017-08-04T13:09:35.406Z,25.00
2017-08-04T13:12:03.481Z,25.03
2017-08-04T13:14:31.555Z,27.00
2017-08-04T13:16:59.762Z,22.03
2017-08-04T13:19:27.840Z,22.87
2017-08-04T13:21:55.924Z,21.87
2017-08-04T13:24:23.975Z,24.63
2017-08-04T13:26:52.051Z,22.97
2017-08-04T13:29:20.143Z,26.53
2017-08-04T13:31:48.223Z,21.47
2017-08-04T13:34:17.067Z,25.67
2017-08-04T13:36:45.120Z,24.53
2017-08-04T13:39:13.215Z,22.50
2017-08-04T13:41:41.283Z,23.47
2017-08-04T13:44:09.387Z,22.27
2017-08-04T13:46:37.440Z,21.90
2017-08-04T13:49:05.668Z,22.13
2017-08-04T13:51:33.755Z,24.00
2017-08-04T13:54:01.832Z,22.83
2017-08-04T13:56:29.903Z,25.00
2017-08-04T13:58:57.986Z,22.63
2017-08-04T14:01:26.069Z,20.83
2017-08-04T14:03:54.147Z,21.30
2017-08-04T14:06:22.201Z,22.20
2017-08-04T14:08:50.284Z,22.80
2017-08-04T14:11:18.343Z,21.20
2017-08-04T14:13:46.428Z,20.33
2017-08-04T14:16:14.515Z,21.77
2017-08-04T14:18:43.383Z,21.20
2017-08-04T14:21:11.473Z,19.57
2017-08-04T14:23:39.529Z,23.40
2017-08-04T14:26:07.617Z,21.17
2017-08-04T14:28:35.661Z,19.20
2017-08-04T14:31:03.734Z,33.30
2017-08-04T14:33:31.818Z,19.00
2017-08-04T14:35:59.914Z,25.27
2017-08-04T14:38:28.753Z,20.13
2017-08-04T14:40:57.043Z,21.40
2017-08-04T14:43:25.163Z,19.77
2017-08-04T14:45:53.232Z,18.17
2017-08-04T14:48:21.351Z,20.47
2017-08-04T14:50:49.430Z,19.03
2017-08-04T14:53:18.243Z,23.50
2017-08-04T14:55:46.350Z,22.37
2017-08-04T14:58:14.465Z,23.17
2017-08-04T15:00:43.304Z,21.37
2017-08-04T15:03:11.394Z,19.73
2017-08-04T15:05:39.642Z,19.30
2017-08-04T15:08:08.097Z,21.30
2017-08-04T15:10:37.177Z,19.30
2017-08-04T15:13:05.588Z,20.60
2017-08-04T15:15:33.998Z,19.77
2017-08-04T15:18:02.082Z,20.90
2017-08-04T15:20:30.160Z,23.40
2017-08-04T15:22:58.210Z,23.40
2017-08-04T15:25:26.295Z,21.40
2017-08-04T15:27:54.365Z,32.70
2017-08-04T15:30:22.471Z,21.27
2017-08-04T15:32:51.319Z,17.23
2017-08-04T15:35:19.450Z,34.03
2017-08-04T15:37:47.542Z,17.40
2017-08-04T15:40:15.603Z,19.00
2017-08-04T15:42:43.672Z,23.87
2017-08-04T15:45:11.849Z,18.83
2017-08-04T15:47:39.915Z,16.10
2017-08-04T15:50:07.995Z,21.53
2017-08-04T15:52:36.068Z,17.33
2017-08-04T15:55:04.141Z,19.83
2017-08-04T15:57:33.015Z,22.00
2017-08-04T16:00:01.063Z,18.40
2017-08-04T16:02:29.164Z,19.30
2017-08-04T16:04:57.228Z,19.13
2017-08-04T16:07:25.298Z,19.07
2017-08-04T16:09:53.404Z,17.40
2017-08-04T16:12:22.237Z,16.67
2017-08-04T16:14:50.303Z,15.63
2017-08-04T16:17:18.387Z,16.00
2017-08-04T16:19:46.474Z,16.20
2017-08-04T16:22:14.543Z,18.63
2017-08-04T16:24:42.680Z,15.70
2017-08-04T16:27:10.749Z,15.60
2017-08-04T16:29:38.835Z,14.57
2017-08-04T16:32:06.898Z,17.93
2017-08-04T16:34:34.957Z,14.70
2017-08-04T16:37:03.137Z,16.60
2017-08-04T16:39:31.194Z,14.93
2017-08-04T16:41:59.288Z,15.83
2017-08-04T16:44:27.372Z,17.43
2017-08-04T16:46:55.458Z,15.30
2017-08-04T16:49:23.536Z,16.90
2017-08-04T16:51:51.595Z,16.00
2017-08-04T16:54:20.411Z,14.00
2017-08-04T16:56:48.478Z,16.37
2017-08-04T16:59:16.540Z,16.50
2017-08-04T17:01:44.621Z,15.60
2017-08-04T17:04:12.679Z,15.63
2017-08-04T17:06:40.751Z,16.87
2017-08-04T17:09:08.839Z,18.20
2017-08-04T17:11:37.703Z,21.27
2017-08-04T17:14:05.759Z,15.50
2017-08-04T17:16:33.839Z,17.07
2017-08-04T17:19:01.930Z,15.27
2017-08-04T17:21:29.987Z,16.50
2017-08-04T17:23:58.098Z,17.13
2017-08-04T17:26:26.928Z,15.50
2017-08-04T17:28:54.984Z,15.87
2017-08-04T17:31:23.072Z,16.33
2017-08-04T17:33:51.130Z,16.73
2017-08-04T17:36:19.228Z,16.60
2017-08-04T17:38:47.314Z,17.03
2017-08-04T17:41:15.399Z,14.83
2017-08-04T17:43:43.873Z,16.43
2017-08-04T17:46:12.376Z,14.43
2017-08-04T17:48:40.465Z,16.63
2017-08-04T17:51:09.290Z,14.07
2017-08-04T17:53:37.391Z,13.57
2017-08-04T17:56:05.482Z,17.57
2017-08-04T17:58:37.300Z,14.30
2017-08-04T18:01:05.379Z,17.10
2017-08-04T18:03:33.451Z,16.30
2017-08-04T18:06:01.534Z,17.57
2017-08-04T18:08:29.597Z,15.90
2017-08-04T18:10:57.707Z,18.07
2017-08-04T18:13:25.786Z,18.70
2017-08-04T18:15:54.724Z,14.40
2017-08-04T18:18:22.790Z,16.60
2017-08-04T18:20:50.865Z,14.87
2017-08-04T18:23:18.960Z,15.80
2017-08-04T18:25:47.072Z,16.30
2017-08-04T18:28:15.948Z,14.80
2017-08-04T18:30:44.014Z,13.70
2017-08-04T18:33:12.893Z,14.57
2017-08-04T18:35:41.109Z,12.93
2017-08-04T18:38:09.165Z,14.10
2017-08-04T18:40:38.010Z,12.60
2017-08-04T18:43:06.089Z,12.87
2017-08-04T18:45:34.178Z,13.30
2017-08-04T18:48:03.012Z,15.23
2017-08-04T18:50:31.080Z,15.63
2017-08-04T18:52:59.180Z,15.07
2017-08-04T18:55:27.248Z,13.30
2017-08-04T18:57:55.334Z,12.30
2017-08-04T19:00:23.407Z,13.70
2017-08-04T19:02:51.471Z,12.90
2017-08-04T19:05:19.566Z,13.20
2017-08-04T19:07:48.412Z,13.10
2017-08-04T19:10:16.495Z,13.40
2017-08-04T19:12:44.595Z,12.43
2017-08-04T19:15:12.785Z,14.90
2017-08-04T19:17:41.620Z,12.67
2017-08-04T19:20:09.692Z,12.70
2017-08-04T19:22:37.787Z,13.00
2017-08-04T19:25:05.884Z,14.33
2017-08-04T19:27:34.714Z,16.43
2017-08-04T19:30:02.814Z,13.50
2017-08-04T19:32:30.911Z,14.47
2017-08-04T19:34:58.967Z,13.00
2017-08-04T19:37:27.087Z,12.20
2017-08-04T19:39:55.118Z,13.60
2017-08-04T19:42:23.969Z,11.73
2017-08-04T19:44:52.047Z,12.40
2017-08-04T19:47:20.118Z,12.87
2017-08-04T19:49:48.206Z,14.43
2017-08-04T19:52:16.270Z,14.60
2017-08-04T19:54:44.364Z,16.97
2017-08-04T19:57:12.458Z,16.67
2017-08-04T19:59:40.520Z,19.30
2017-08-04T20:02:08.603Z,14.43
2017-08-04T20:04:36.678Z,15.00
2017-08-04T20:07:04.826Z,17.80
2017-08-04T20:09:32.940Z,16.57
2017-08-04T20:12:01.003Z,15.70
2017-08-04T20:14:29.836Z,16.77
2017-08-04T20:16:57.935Z,19.53
2017-08-04T20:19:26.039Z,13.70
2017-08-04T20:21:54.095Z,14.03
2017-08-04T20:24:22.220Z,14.33
2017-08-04T20:26:51.045Z,17.00
2017-08-04T20:29:19.124Z,14.30
2017-08-04T20:31:47.200Z,13.13
2017-08-04T20:34:15.280Z,15.30
2017-08-04T20:36:43.351Z,14.07
2017-08-04T20:39:11.419Z,15.67
2017-08-04T20:41:39.511Z,17.17
2017-08-04T20:44:08.339Z,15.20
2017-08-04T20:46:36.409Z,15.30
2017-08-04T20:49:04.481Z,16.37
2017-08-04T20:51:32.563Z,14.10
2017-08-04T20:54:01.403Z,13.60
2017-08-04T20:56:29.491Z,16.70
2017-08-04T20:58:57.572Z,14.53
2017-08-04T21:01:25.660Z,14.40
2017-08-04T21:03:53.729Z,13.80
2017-08-04T21:06:21.794Z,13.30
2017-08-04T21:08:49.880Z,14.97
2017-08-04T21:11:18.740Z,14.53
2017-08-04T21:13:46.799Z,13.53
2017-08-04T21:16:14.863Z,14.90
2017-08-04T21:18:42.991Z,15.53
2017-08-04T21:21:11.060Z,10.37
2017-08-04T21:23:39.907Z,13.03
2017-08-04T21:26:07.969Z,14.70
2017-08-04T21:28:36.055Z,16.10
2017-08-04T21:31:04.139Z,15.10
2017-08-04T21:33:32.197Z,12.63
2017-08-04T21:36:00.286Z,14.00
2017-08-04T21:38:28.391Z,13.00
2017-08-04T21:40:57.212Z,10.67
2017-08-04T21:43:25.299Z,8.97
2017-08-04T21:45:53.386Z,11.37
2017-08-04T21:48:21.482Z,10.70
2017-08-04T21:50:49.551Z,11.20
2017-08-04T21:53:17.619Z,9.73
2017-08-04T21:55:45.711Z,10.50
2017-08-04T21:58:13.760Z,10.37
2017-08-04T22:00:41.839Z,8.90
2017-08-04T22:03:09.910Z,12.37
2017-08-04T22:05:37.996Z,11.27
2017-08-04T22:08:06.853Z,8.13
2017-08-04T22:10:34.934Z,11.63
2017-08-04T22:13:02.987Z,13.57
2017-08-04T22:15:31.059Z,12.77
2017-08-04T22:17:59.128Z,10.83
2017-08-04T22:20:27.195Z,9.97
2017-08-04T22:22:55.275Z,10.20
2017-08-04T22:25:23.334Z,13.13
2017-08-04T22:27:51.420Z,10.33
2017-08-04T22:30:19.482Z,6.13
2017-08-04T22:32:47.583Z,9.97
2017-08-04T22:35:15.651Z,8.00
2017-08-04T22:37:43.720Z,10.60
2017-08-04T22:40:11.791Z,10.20
2017-08-04T22:42:39.859Z,11.13
2017-08-04T22:45:07.927Z,8.10
2017-08-04T22:47:35.982Z,8.40
2017-08-04T22:50:04.846Z,10.07
2017-08-04T22:52:32.901Z,8.10
2017-08-04T22:55:00.974Z,8.80
2017-08-04T22:57:29.045Z,7.83
2017-08-04T22:59:57.080Z,8.20
2017-08-04T23:02:25.164Z,9.30
2017-08-04T23:04:53.248Z,7.37
2017-08-04T23:07:21.305Z,7.90
2017-08-04T23:09:49.383Z,8.73
2017-08-04T23:12:17.431Z,8.00
2017-08-04T23:14:45.515Z,7.80
2017-08-04T23:17:13.594Z,9.43
2017-08-04T23:19:41.664Z,9.73
2017-08-04T23:22:09.758Z,11.30
2017-08-04T23:24:37.815Z,10.40
2017-08-04T23:27:05.924Z,11.37
2017-08-04T23:29:33.983Z,8.30
2017-08-04T23:32:02.066Z,11.00
2017-08-04T23:34:30.123Z,10.87
2017-08-04T23:36:58.197Z,9.53
2017-08-04T23:39:26.263Z,8.50
2017-08-04T23:41:54.320Z,10.60
2017-08-04T23:44:22.383Z,9.60
2017-08-04T23:46:50.468Z,10.90
2017-08-04T23:49:18.547Z,10.23
2017-08-04T23:51:46.598Z,8.60
2017-08-04T23:54:14.664Z,11.23
2017-08-04T23:56:42.744Z,9.23
2017-08-04T23:59:10.802Z,11.60
